Airfield :
LOGIN :

Register | Disclaimer

   EN    FR    IT 

 










Legend :    VFR   Marginal VFR   IFR   Intensive IFR   Very Intensive IFR
Visi :
Ceiling :
>= 8 km
>= 3000ft
5 to 8 km
1000 to 3000 ft
1500m to 5 km
500 to 1000 ft
800 to 1500m
200 to 500 ft
< 800m
< 200 ft
Symbols :   Thunderstorms  Fog  Heavy snow  Heavy precipitations  Wind > 20 kt
SIGMETs :     Misc.  Thunderstorms  Icing  Turbulence  Mountain Waves  Volcanic Ashes






- Airport Elevation : 327 ft
- IATA code : BHX


EGBB - Birmingham

CURRENT METAR :
  • 031320Z 19004KT 140V260 9999 SCT033TCU 20/13 Q1012

EXPIRED METARs :
  • 031250Z 11004KT 030V170 9999 SCT033TCU 19/12 Q1012
  • 031220Z 10004KT 050V160 9999 SCT026TCU 19/12 Q1013
  • 031150Z 12005KT 030V160 9999 SCT025TCU 19/13 Q1013
  • 031120Z 14005KT 080V230 9999 SCT025TCU 19/12 Q1013
  • 031050Z VRB03KT 9999 FEW020 SCT032TCU 18/12 Q1013

TAF TAF EGBB
Valid from the 03 at 12:00 until the 04 at 12:00 UTC


031103Z 0312/0412 VRB03KT 9999 SCT030
TEMPO 0314/0321 7000 SHRA
PROB30
TEMPO 0314/0318 4000 +SHRA
PROB40 0403/0407 6000
BECMG 0408/0411 19010KT
ATIS : +44 121 780 0910



MET'MAP, your aeronautical weather chart ! - Copyright ORBIFLY December 2007 - Disclaimer

ORBIFLY MET'MAP TEAM :

Programming & Development : Alexandra Zaïnal
Concept & original design : Baudouin d'Aumeries
Assistance for programming : Marc-Olivier Méhu
Technical & hardware support : Manuel Goepfert

Contact : metmap@orbifly.com




SOURCES & CREDITS :

   NOAA